createdAt,value
2023-04-15T00:00:52.486Z,4.46
2023-04-15T00:05:55.503Z,4.47
2023-04-15T00:11:02.939Z,4.48
2023-04-15T00:16:08.466Z,4.51
2023-04-15T00:21:11.646Z,4.53
2023-04-15T00:26:14.553Z,4.54
2023-04-15T00:31:17.641Z,4.53
2023-04-15T00:36:20.599Z,4.57
2023-04-15T00:41:24.083Z,4.61
2023-04-15T00:46:31.147Z,4.63
2023-04-15T00:51:37.103Z,4.66
2023-04-15T00:56:40.210Z,4.67
2023-04-15T01:01:44.751Z,4.72
2023-04-15T01:06:47.815Z,4.74
2023-04-15T01:11:51.137Z,4.75
2023-04-15T01:16:54.186Z,4.79
2023-04-15T01:21:57.756Z,4.80
2023-04-15T01:27:00.716Z,4.82
2023-04-15T01:32:04.257Z,4.80
2023-04-15T01:37:07.519Z,4.82
2023-04-15T01:42:11.167Z,4.81
2023-04-15T01:47:14.380Z,4.84
2023-04-15T01:52:17.398Z,4.87
2023-04-15T01:57:20.396Z,4.90
2023-04-15T02:02:23.391Z,4.96
2023-04-15T02:07:28.994Z,5.00
2023-04-15T02:12:31.963Z,5.02
2023-04-15T02:17:35.862Z,5.05
2023-04-15T02:22:38.915Z,5.00
2023-04-15T02:27:41.840Z,5.01
2023-04-15T02:32:45.313Z,5.00
2023-04-15T02:37:48.458Z,5.04
2023-04-15T02:42:51.522Z,5.08
2023-04-15T02:47:55.048Z,5.10
2023-04-15T02:52:58.108Z,5.14
2023-04-15T02:58:01.320Z,5.10
2023-04-15T03:03:06.162Z,5.04
2023-04-15T03:08:09.295Z,4.96
2023-04-15T03:13:12.218Z,4.95
2023-04-15T03:18:15.193Z,4.97
2023-04-15T03:23:18.233Z,5.02
2023-04-15T03:28:21.280Z,5.04
2023-04-15T03:33:24.230Z,5.06
2023-04-15T03:38:27.163Z,5.06
2023-04-15T03:43:30.601Z,5.07
2023-04-15T03:48:33.727Z,5.08
2023-04-15T03:53:36.924Z,5.09
2023-04-15T03:58:39.866Z,5.09
2023-04-15T04:03:43.311Z,5.10
2023-04-15T04:08:46.487Z,5.17
2023-04-15T04:13:49.458Z,5.24
2023-04-15T04:18:52.406Z,5.24
2023-04-15T04:23:56.824Z,5.27
2023-04-15T04:28:59.949Z,5.28
2023-04-15T04:34:03.085Z,5.33
2023-04-15T04:39:06.049Z,5.38
2023-04-15T04:44:08.976Z,5.42
2023-04-15T04:49:12.037Z,5.46
2023-04-15T04:54:15.100Z,5.51
2023-04-15T04:59:19.424Z,5.56
2023-04-15T05:04:22.514Z,5.64
2023-04-15T05:09:25.610Z,5.74
2023-04-15T05:14:28.569Z,5.88
2023-04-15T05:19:31.342Z,6.01
2023-04-15T05:24:34.382Z,6.11
2023-04-15T05:29:37.293Z,6.21
2023-04-15T05:34:40.484Z,6.32
2023-04-15T05:39:43.597Z,6.40
2023-04-15T05:44:47.272Z,6.46
2023-04-15T05:49:50.222Z,6.57
2023-04-15T05:54:53.176Z,6.62
2023-04-15T05:59:57.389Z,6.75
2023-04-15T06:05:01.253Z,6.88
2023-04-15T06:10:05.957Z,6.99
2023-04-15T06:15:10.457Z,7.14
2023-04-15T06:20:13.549Z,7.13
2023-04-15T06:25:16.626Z,7.22
2023-04-15T06:30:19.703Z,7.40
2023-04-15T06:35:23.231Z,7.53
2023-04-15T06:40:26.132Z,7.64
2023-04-15T06:45:29.168Z,7.69
2023-04-15T06:50:32.723Z,7.92
2023-04-15T06:55:35.617Z,8.11
2023-04-15T07:00:39.255Z,8.44
2023-04-15T07:05:42.324Z,8.89
2023-04-15T07:10:45.156Z,9.21
2023-04-15T07:15:48.049Z,9.43
2023-04-15T07:20:51.650Z,9.54
2023-04-15T07:25:54.662Z,9.64
2023-04-15T07:30:57.846Z,9.85
2023-04-15T07:36:01.017Z,10.41
2023-04-15T07:41:04.954Z,10.95
2023-04-15T07:46:08.422Z,11.81
2023-04-15T07:51:13.088Z,12.68
2023-04-15T07:56:16.312Z,13.11
2023-04-15T08:01:19.305Z,12.60
2023-04-15T08:06:22.847Z,12.20
2023-04-15T08:11:26.285Z,11.69
2023-04-15T08:16:29.806Z,11.61
2023-04-15T08:21:32.953Z,11.73
2023-04-15T08:26:36.330Z,12.10
2023-04-15T08:31:39.541Z,12.36
2023-04-15T08:36:43.313Z,12.49
2023-04-15T08:41:51.791Z,12.71
2023-04-15T08:46:57.218Z,12.56
2023-04-15T08:52:00.599Z,12.30
2023-04-15T08:57:04.251Z,12.21
2023-04-15T09:02:07.763Z,11.96
2023-04-15T09:07:10.857Z,11.59
2023-04-15T09:12:14.392Z,11.18
2023-04-15T09:17:21.811Z,10.97
2023-04-15T09:22:24.918Z,12.15
2023-04-15T09:27:27.932Z,13.18
2023-04-15T09:32:31.490Z,13.27
2023-04-15T09:37:37.422Z,13.00
2023-04-15T09:42:56.816Z,12.73
2023-04-15T09:48:16.932Z,12.35
2023-04-15T09:53:22.567Z,11.96
2023-04-15T09:58:31.377Z,11.56
2023-04-15T10:03:37.047Z,11.32
2023-04-15T10:08:41.711Z,11.07
2023-04-15T10:13:47.250Z,10.88
2023-04-15T10:18:56.843Z,11.13
2023-04-15T10:24:02.313Z,11.38
2023-04-15T10:29:06.097Z,11.72
2023-04-15T10:34:09.841Z,11.87
2023-04-15T10:39:34.854Z,11.63
2023-04-15T10:44:43.217Z,11.49
2023-04-15T10:49:51.278Z,11.64
2023-04-15T10:55:33.413Z,12.16
2023-04-15T11:00:37.894Z,12.73
2023-04-15T11:05:53.576Z,12.59
2023-04-15T11:10:56.626Z,12.39
2023-04-15T11:16:02.109Z,12.00
2023-04-15T11:21:07.910Z,11.93
2023-04-15T11:26:12.615Z,12.29
2023-04-15T11:31:18.554Z,12.33
2023-04-15T11:36:21.563Z,12.37
2023-04-15T11:41:24.830Z,12.58
2023-04-15T11:46:34.535Z,12.56
2023-04-15T11:51:39.232Z,12.59
2023-04-15T11:56:42.413Z,12.56
2023-04-15T12:01:47.690Z,12.53
2023-04-15T12:06:50.744Z,12.40
2023-04-15T12:11:58.505Z,12.47
2023-04-15T12:17:06.647Z,12.29
2023-04-15T12:22:15.364Z,12.00
2023-04-15T12:27:18.569Z,11.77
2023-04-15T12:32:22.050Z,11.69
2023-04-15T12:37:26.182Z,11.95
2023-04-15T12:42:29.079Z,12.07
2023-04-15T12:47:31.958Z,12.17
2023-04-15T12:52:34.706Z,12.25
2023-04-15T12:57:38.367Z,12.10
2023-04-15T13:02:43.574Z,11.77
2023-04-15T13:07:47.134Z,11.66
2023-04-15T13:12:53.505Z,11.82
2023-04-15T13:17:56.750Z,12.07
2023-04-15T13:22:59.636Z,12.16
2023-04-15T13:28:03.092Z,12.14
2023-04-15T13:33:06.570Z,12.01
2023-04-15T13:38:09.669Z,11.80
2023-04-15T13:43:13.010Z,11.71
2023-04-15T13:48:16.257Z,11.65
2023-04-15T13:53:19.732Z,11.91
2023-04-15T13:58:22.527Z,12.22
2023-04-15T14:03:26.360Z,12.08
2023-04-15T14:08:30.898Z,11.77
2023-04-15T14:13:33.950Z,11.58
2023-04-15T14:18:37.568Z,11.30
2023-04-15T14:23:41.142Z,11.15
2023-04-15T14:28:45.212Z,11.17
2023-04-15T14:33:48.215Z,11.20
2023-04-15T14:38:51.173Z,11.14
2023-04-15T14:43:54.188Z,11.14
2023-04-15T14:48:57.792Z,11.20
2023-04-15T14:54:00.914Z,11.33
2023-04-15T14:59:04.098Z,11.37
2023-04-15T15:04:07.361Z,11.26
2023-04-15T15:09:10.550Z,11.12
2023-04-15T15:14:13.856Z,11.05
2023-04-15T15:19:17.022Z,11.07
2023-04-15T15:24:19.908Z,11.12
2023-04-15T15:29:24.768Z,11.14
2023-04-15T15:34:27.758Z,11.08
2023-04-15T15:39:30.583Z,11.01
2023-04-15T15:44:34.693Z,10.89
2023-04-15T15:49:37.704Z,10.63
2023-04-15T15:54:41.747Z,10.03
2023-04-15T15:59:45.141Z,9.07
2023-04-15T16:04:50.175Z,8.52
2023-04-15T16:09:54.084Z,8.32
2023-04-15T16:14:57.164Z,8.26
2023-04-15T16:20:01.190Z,8.23
2023-04-15T16:25:04.832Z,8.18
2023-04-15T16:30:09.574Z,8.10
2023-04-15T16:35:14.512Z,8.01
2023-04-15T16:40:17.680Z,7.98
2023-04-15T16:45:20.701Z,7.96
2023-04-15T16:50:24.019Z,7.95
2023-04-15T16:55:27.362Z,7.96
2023-04-15T17:00:31.701Z,7.94
2023-04-15T17:05:35.099Z,7.93
2023-04-15T17:10:38.188Z,7.94
2023-04-15T17:15:41.234Z,7.91
2023-04-15T17:20:45.900Z,7.91
2023-04-15T17:25:48.914Z,7.90
2023-04-15T17:30:52.047Z,7.84
2023-04-15T17:35:54.931Z,7.85
2023-04-15T17:40:58.822Z,7.82
2023-04-15T17:46:01.857Z,7.81
2023-04-15T17:51:04.869Z,7.74
2023-04-15T17:56:08.730Z,7.65
2023-04-15T18:01:11.680Z,7.58
2023-04-15T18:06:16.960Z,7.50
2023-04-15T18:11:19.889Z,7.40
2023-04-15T18:16:22.915Z,7.31
2023-04-15T18:21:27.182Z,7.23
2023-04-15T18:26:30.215Z,7.14
2023-04-15T18:31:33.405Z,7.02
2023-04-15T18:36:36.392Z,6.93
2023-04-15T18:41:39.357Z,6.82
2023-04-15T18:46:42.386Z,6.75
2023-04-15T18:51:45.334Z,6.73
2023-04-15T18:56:48.625Z,6.66
2023-04-15T19:01:51.802Z,6.60
2023-04-15T19:06:55.173Z,6.55
2023-04-15T19:11:58.186Z,6.49
2023-04-15T19:17:01.648Z,6.42
2023-04-15T19:22:05.112Z,6.39
2023-04-15T19:27:08.085Z,6.31
2023-04-15T19:32:11.166Z,6.28
2023-04-15T19:37:14.791Z,6.22
2023-04-15T19:42:18.160Z,6.16
2023-04-15T19:47:21.178Z,6.11
2023-04-15T19:52:24.162Z,6.05
2023-04-15T19:57:27.878Z,6.04
2023-04-15T20:02:30.983Z,6.04
2023-04-15T20:07:34.032Z,6.04
2023-04-15T20:12:50.711Z,6.04
2023-04-15T20:17:55.691Z,6.03
2023-04-15T20:22:58.739Z,6.02
2023-04-15T20:28:02.196Z,6.02
2023-04-15T20:33:07.797Z,6.02
2023-04-15T20:38:13.352Z,6.00
2023-04-15T20:43:16.282Z,5.99
2023-04-15T20:48:20.683Z,5.98
2023-04-15T20:53:23.692Z,5.96
2023-04-15T20:58:27.141Z,5.98
2023-04-15T21:03:30.792Z,5.98
2023-04-15T21:08:33.908Z,5.95
2023-04-15T21:13:36.873Z,5.95
2023-04-15T21:18:39.833Z,6.02
2023-04-15T21:23:42.836Z,6.07
2023-04-15T21:28:45.955Z,6.11
2023-04-15T21:33:48.841Z,6.12
2023-04-15T21:38:51.912Z,6.17
2023-04-15T21:43:54.978Z,6.19
2023-04-15T21:48:57.918Z,6.19
2023-04-15T21:54:00.872Z,6.18
2023-04-15T21:59:04.596Z,6.16
2023-04-15T22:04:08.040Z,6.18
2023-04-15T22:09:12.797Z,6.19
2023-04-15T22:14:17.177Z,6.20
2023-04-15T22:19:20.349Z,6.19
2023-04-15T22:24:34.352Z,6.17
2023-04-15T22:29:42.975Z,6.15
2023-04-15T22:34:46.063Z,6.13
2023-04-15T22:39:49.047Z,6.10
2023-04-15T22:44:52.526Z,6.06
2023-04-15T22:49:55.783Z,5.98
2023-04-15T22:54:59.432Z,5.91
2023-04-15T23:00:02.413Z,5.84
2023-04-15T23:05:13.263Z,5.82
2023-04-15T23:10:16.769Z,5.78
2023-04-15T23:15:19.828Z,5.77
2023-04-15T23:20:22.740Z,5.73
2023-04-15T23:25:26.152Z,5.73
2023-04-15T23:30:30.002Z,5.73
2023-04-15T23:35:33.050Z,5.73
2023-04-15T23:40:36.026Z,5.73
2023-04-15T23:45:40.169Z,5.74
2023-04-15T23:50:43.215Z,5.76
2023-04-15T23:55:46.107Z,5.80
